Time;durP1;ratioP1;P1;durP2;ratioP2;P2;SDS_P1;SDS_P2;PMS_P1;PMS_P2;Temp;Humidity;BMP_temperature;BMP_pressure;BME280_temperature;BME280_humidity;BME280_pressure;Samples;Min_cycle;Max_cycle;Signal;HPM_P1;HPM_P2
2022/01/24 00:01:42;;;;;;;28.95;13.52;;;;;;;12.19;42.60;102399.63;4426641;32;20787;-70
2022/01/24 00:04:08;;;;;;;26.92;13.43;;;;;;;11.99;43.00;102402.09;4428872;32;20090;-70
2022/01/24 00:06:34;;;;;;;27.83;13.93;;;;;;;12.15;42.76;102410.09;4427370;32;20092;-70
2022/01/24 00:09:01;;;;;;;25.70;12.55;;;;;;;11.93;43.33;102414.22;4426966;32;20033;-69
2022/01/24 00:11:38;;;;;;;25.02;12.80;;;;;;;12.09;43.01;102411.75;4426142;32;20033;-69
2022/01/24 00:27:52;;;;;;;26.48;13.15;;;;;;;11.68;43.76;102425.56;4428427;32;20137;-71
2022/01/24 00:30:18;;;;;;;27.02;12.90;;;;;;;11.76;43.52;102413.03;4428853;32;20431;-69
2022/01/24 00:32:45;;;;;;;26.50;12.82;;;;;;;11.71;43.75;102416.28;4429215;32;20103;-69
2022/01/24 00:35:12;;;;;;;26.00;13.25;;;;;;;11.86;43.34;102415.03;4428497;32;20090;-69
2022/01/24 00:37:38;;;;;;;25.30;12.65;;;;;;;11.56;43.76;102403.37;4427414;32;20102;-69
2022/01/24 00:40:05;;;;;;;23.38;12.30;;;;;;;11.68;43.35;102405.00;4426246;32;20064;-69
2022/01/24 00:42:42;;;;;;;28.02;12.23;;;;;;;12.14;42.76;102414.13;4425901;32;20139;-69
2022/01/24 00:45:16;;;;;;;28.12;12.63;;;;;;;11.91;42.59;102416.66;4425728;32;20085;-69
2022/01/24 00:56:06;;;;;;;26.25;13.77;;;;;;;11.77;43.01;102420.31;4418869;32;20022;-70
2022/01/24 00:58:33;;;;;;;28.98;13.10;;;;;;;11.79;43.16;102426.31;4422230;32;20060;-70
2022/01/24 01:00:59;;;;;;;28.80;12.75;;;;;;;11.58;43.28;102420.72;4427451;32;20297;-70
2022/01/24 01:03:38;;;;;;;27.13;12.63;;;;;;;11.90;42.78;102426.31;4425448;32;20091;-70
2022/01/24 01:06:18;;;;;;;27.08;12.73;;;;;;;11.64;43.18;102421.12;4424265;32;20060;-70
2022/01/24 01:19:59;;;;;;;27.80;11.65;;;;;;;11.96;42.70;102417.03;4426655;32;19964;-70
2022/01/24 01:22:24;;;;;;;35.80;15.38;;;;;;;11.57;43.27;102407.81;4424239;32;20037;-70
2022/01/24 01:24:53;;;;;;;28.00;14.05;;;;;;;11.61;42.94;102411.44;4425127;32;20141;-70
2022/01/24 01:27:26;;;;;;;31.15;14.80;;;;;;;11.69;42.63;102415.09;4426089;32;20083;-70
2022/01/24 01:32:48;;;;;;;37.37;17.30;;;;;;;12.52;41.45;102418.78;3965409;31;15709511;-70
2022/01/24 01:35:38;;;;;;;34.42;16.35;;;;;;;12.52;41.45;102418.78;4444369;32;20143;-69
2022/01/24 01:57:15;;;;;;;36.80;16.77;;;;;;;12.14;41.98;102402.84;3981726;32;15022433;-69
2022/01/24 01:59:41;;;;;;;36.88;17.17;;;;;;;12.14;41.98;102402.84;4429904;32;20132;-70
2022/01/24 02:02:07;;;;;;;44.33;17.73;;;;;;;11.32;43.49;102400.63;4427634;32;20612;-70
2022/01/24 02:04:33;;;;;;;38.88;17.50;;;;;;;11.30;43.51;102405.84;4430118;32;20029;-70
2022/01/24 02:06:59;;;;;;;43.15;18.35;;;;;;;11.48;43.04;102404.59;4431909;32;20068;-70
2022/01/24 02:09:33;;;;;;;43.83;18.67;;;;;;;11.26;43.64;102394.56;4427001;32;20033;-70
2022/01/24 02:11:59;;;;;;;40.00;18.05;;;;;;;11.81;42.89;102406.19;4428971;32;20052;-70
2022/01/24 02:14:32;;;;;;;43.40;18.75;;;;;;;11.59;42.58;102401.75;4430806;32;21074;-69
2022/01/24 02:17:07;;;;;;;35.83;17.05;;;;;;;11.65;42.82;102403.81;4429989;32;20037;-69
2022/01/24 02:20:13;;;;;;;42.97;17.95;;;;;;;11.84;42.91;102405.34;4424461;32;20222;-69
2022/01/24 02:25:11;;;;;;;42.95;18.02;;;;;;;12.30;41.83;102416.50;3977995;32;15023739;-70
2022/01/24 02:27:45;;;;;;;44.97;19.52;;;;;;;12.30;41.83;102416.50;4428173;32;20096;-69
2022/01/24 02:30:27;;;;;;;48.28;20.75;;;;;;;11.80;42.53;102413.03;4427713;32;20504;-69
2022/01/24 02:32:55;;;;;;;51.85;23.23;;;;;;;11.86;42.00;102415.03;4430765;32;20680;-70
2022/01/24 02:35:21;;;;;;;48.60;22.27;;;;;;;11.61;43.05;102413.47;4427130;32;20069;-69
2022/01/24 02:37:46;;;;;;;48.72;21.23;;;;;;;11.48;42.85;102401.78;4430472;32;20691;-69
2022/01/24 02:40:16;;;;;;;54.25;24.75;;;;;;;11.67;42.82;102397.75;4428868;32;20095;-69
2022/01/24 02:48:30;;;;;;;;;;;;;;;11.79;42.28;102408.63;4424504;32;20064;-69
2022/01/24 02:53:44;;;;;;;51.30;21.73;;;;;;;11.38;43.18;102410.25;4426148;32;20056;-69
2022/01/24 02:56:10;;;;;;;57.60;22.45;;;;;;;11.67;42.11;102409.03;4425676;32;20545;-69
2022/01/24 02:58:36;;;;;;;48.55;21.08;;;;;;;11.60;42.58;102412.63;4427663;32;20088;-70
2022/01/24 03:01:07;;;;;;;51.35;22.17;;;;;;;11.23;43.54;102409.44;4425275;32;20049;-70
2022/01/24 03:03:34;;;;;;;48.75;21.20;;;;;;;11.61;42.90;102411.44;4430129;32;20044;-68
2022/01/24 03:06:00;;;;;;;48.87;21.20;;;;;;;11.76;42.70;102406.59;4430546;32;20034;-68
2022/01/24 03:08:26;;;;;;;50.17;21.50;;;;;;;11.38;43.31;102407.44;4430618;32;20080;-68
2022/01/24 03:10:53;;;;;;;54.25;22.30;;;;;;;11.24;43.33;102411.09;4427806;32;20072;-68
2022/01/24 03:13:32;;;;;;;46.60;20.90;;;;;;;11.09;44.02;102406.66;4429019;32;20069;-69
2022/01/24 03:15:59;;;;;;;51.42;21.05;;;;;;;11.22;43.97;102402.22;4429850;32;20088;-68
2022/01/24 03:18:26;;;;;;;52.38;23.62;;;;;;;11.50;43.49;102401.38;4426882;32;21452;-68
2022/01/24 03:20:52;;;;;;;51.97;22.10;;;;;;;11.68;43.13;102396.53;4428853;32;20065;-69
2022/01/24 03:23:20;;;;;;;55.05;23.05;;;;;;;11.90;42.67;102387.62;4429534;32;20482;-69
2022/01/24 03:25:46;;;;;;;60.70;23.92;;;;;;;12.04;42.73;102393.22;4429035;32;20490;-69
2022/01/24 03:28:16;;;;;;;56.72;22.62;;;;;;;12.06;42.36;102390.78;4428325;32;20161;-69
2022/01/24 03:30:45;;;;;;;56.67;23.38;;;;;;;11.98;42.55;102397.69;4427080;32;20422;-69
2022/01/24 03:33:13;;;;;;;56.03;23.25;;;;;;;12.11;41.85;102383.91;4430613;32;20435;-69
2022/01/24 03:35:41;;;;;;;53.05;23.50;;;;;;;11.98;41.94;102386.41;4425171;32;20077;-69
2022/01/24 03:38:07;;;;;;;57.47;24.40;;;;;;;12.13;41.65;102379.47;4419780;32;20081;-69
2022/01/24 03:40:33;;;;;;;60.15;26.00;;;;;;;11.88;42.29;102375.16;4417155;32;20551;-69
2022/01/24 03:42:58;;;;;;;61.60;24.37;;;;;;;11.79;42.54;102380.41;4418219;32;20165;-69
2022/01/24 03:45:37;;;;;;;58.22;23.10;;;;;;;11.93;42.22;102378.34;4417334;32;20100;-69
2022/01/24 03:48:09;;;;;;;52.05;22.45;;;;;;;11.96;42.00;102379.53;4418117;32;20034;-69
2022/01/24 03:50:35;;;;;;;58.25;22.58;;;;;;;11.94;42.20;102381.97;4417927;32;20029;-69
2022/01/24 03:53:03;;;;;;;55.65;23.52;;;;;;;11.98;42.13;102371.47;4416915;32;20439;-69
2022/01/24 03:55:30;;;;;;;55.67;22.62;;;;;;;11.90;42.22;102369.88;4417128;32;20139;-69
2022/01/24 03:57:56;;;;;;;59.30;24.30;;;;;;;11.79;42.28;102371.94;4420975;32;20735;-69
2022/01/24 04:00:22;;;;;;;58.15;25.02;;;;;;;11.82;41.98;102368.31;4417967;32;20055;-69
2022/01/24 04:02:48;;;;;;;63.85;26.00;;;;;;;11.76;42.30;102373.53;4414261;32;20061;-69
2022/01/24 04:05:14;;;;;;;63.78;24.30;;;;;;;11.48;42.60;102384.06;4420163;32;20046;-69
2022/01/24 04:07:41;;;;;;;64.62;26.15;;;;;;;11.71;42.50;102387.28;4421882;32;20038;-69
2022/01/24 04:10:09;;;;;;;64.87;26.52;;;;;;;11.83;42.42;102378.38;4419356;32;20239;-69
2022/01/24 04:12:37;;;;;;;67.22;27.48;;;;;;;12.00;42.30;102372.66;4420118;32;20080;-69
2022/01/24 04:17:47;;;;;;;58.87;25.17;;;;;;;12.42;41.50;102377.31;3979671;32;15022359;-68
2022/01/24 04:23:01;;;;;;;;;;;;;;;11.73;42.47;102373.56;4430557;32;20528;-69
2022/01/24 04:25:26;;;;;;;70.62;26.55;;;;;;;12.33;41.59;102376.16;4428938;32;19992;-69
2022/01/24 04:27:54;;;;;;;65.25;26.85;;;;;;;12.05;41.61;102389.19;4428200;32;20540;-69
2022/01/24 04:30:21;;;;;;;73.60;28.62;;;;;;;12.35;41.61;102383.00;4429908;32;20026;-69
2022/01/24 04:32:47;;;;;;;71.12;28.08;;;;;;;11.79;42.60;102378.38;4431509;32;20038;-69
2022/01/24 04:35:13;;;;;;;79.25;31.15;;;;;;;11.62;42.87;102384.06;4428479;32;20029;-69
2022/01/24 04:37:38;;;;;;;69.65;27.83;;;;;;;11.18;43.33;102380.88;4428043;32;20122;-69
2022/01/24 04:40:06;;;;;;;73.97;28.25;;;;;;;11.65;42.81;102383.25;4429963;32;20034;-69
2022/01/24 04:42:42;;;;;;;75.47;27.48;;;;;;;11.73;42.54;102384.84;4428099;32;20539;-69
2022/01/24 04:45:59;;;;;;;74.28;29.30;;;;;;;11.60;42.84;102384.44;4425728;32;20033;-69
2022/01/24 04:50:56;;;;;;;;;;;;;;;11.53;42.98;102387.28;4428179;32;20069;-69
2022/01/24 04:53:45;;;;;;;75.45;27.62;;;;;;;11.74;42.83;102392.91;4429079;32;20362;-69
2022/01/24 04:56:07;;;;;;;;;;;;;;;11.24;43.86;102399.00;4431229;32;20033;-69
2022/01/24 04:58:33;;;;;;;71.53;27.73;;;;;;;11.90;42.48;102398.09;4430464;32;19944;-69
2022/01/24 05:00:59;;;;;;;72.15;28.75;;;;;;;11.64;43.06;102395.75;4427134;32;20629;-69
2022/01/24 05:03:25;;;;;;;77.72;29.40;;;;;;;11.74;42.55;102392.91;4430784;32;20117;-69
2022/01/24 05:05:52;;;;;;;79.18;30.60;;;;;;;11.85;42.85;102390.06;4430710;32;20104;-69
2022/01/24 05:08:18;;;;;;;80.00;28.65;;;;;;;11.98;42.45;102388.41;4428456;32;20095;-69
2022/01/24 05:10:58;;;;;;;75.07;29.75;;;;;;;12.01;42.46;102396.06;4428601;32;20079;-69
2022/01/24 05:24:20;;;;;;;82.30;31.08;;;;;;;12.34;41.74;102420.13;3980376;32;15025040;-69
2022/01/24 05:26:45;;;;;;;71.35;29.67;;;;;;;12.34;41.74;102420.13;4431189;32;20465;-69
2022/01/24 05:29:11;;;;;;;71.15;28.73;;;;;;;12.11;41.88;102412.13;4430993;32;20109;-69
2022/01/24 05:31:36;;;;;;;79.65;29.83;;;;;;;12.15;41.73;102415.75;4432901;32;20073;-69
2022/01/24 05:34:02;;;;;;;70.12;27.67;;;;;;;12.00;42.11;102429.09;4431884;32;20426;-69
2022/01/24 05:36:28;;;;;;;70.18;28.05;;;;;;;11.99;41.94;102421.84;4428990;32;20437;-69
2022/01/24 05:38:54;;;;;;;63.20;25.35;;;;;;;12.16;41.74;102416.56;4431338;32;20107;-69
2022/01/24 05:41:20;;;;;;;64.57;27.25;;;;;;;12.28;41.38;102419.75;4430883;32;20455;-69
2022/01/24 05:43:46;;;;;;;58.90;25.30;;;;;;;12.05;41.55;102416.59;4433350;32;20126;-69
2022/01/24 05:46:12;;;;;;;59.50;24.80;;;;;;;12.09;42.02;102406.91;4429769;32;20076;-69
2022/01/24 05:48:37;;;;;;;61.92;24.63;;;;;;;11.99;42.24;102406.94;4430270;32;20524;-69
2022/01/24 05:51:03;;;;;;;53.58;24.08;;;;;;;12.12;41.94;102408.09;4429237;32;20140;-69
2022/01/24 05:53:29;;;;;;;55.42;23.75;;;;;;;12.27;41.96;102418.12;4430626;32;20034;-69
2022/01/24 05:55:55;;;;;;;57.53;24.75;;;;;;;12.16;41.92;102425.84;4429925;32;20089;-70
2022/01/24 05:58:21;;;;;;;56.22;22.40;;;;;;;11.92;42.77;102423.91;4427131;32;20038;-69
2022/01/24 06:00:46;;;;;;;52.42;22.45;;;;;;;11.84;42.72;102425.09;4428235;32;20396;-69
2022/01/24 06:03:13;;;;;;;48.60;20.73;;;;;;;12.17;42.19;102427.44;4428397;32;20066;-69
2022/01/24 06:05:38;;;;;;;46.45;19.33;;;;;;;12.05;42.50;102431.50;4431426;32;20427;-69
2022/01/24 06:08:04;;;;;;;37.20;18.05;;;;;;;12.35;41.94;102431.00;4429472;32;20122;-69
2022/01/24 06:10:30;;;;;;;45.42;19.17;;;;;;;12.22;41.99;102431.84;4428676;32;20180;-69
2022/01/24 06:12:56;;;;;;;41.78;17.37;;;;;;;12.23;41.92;102424.97;4428028;32;20157;-69
2022/01/24 06:15:23;;;;;;;39.88;16.95;;;;;;;12.24;41.65;102421.75;4429500;32;20055;-69
2022/01/24 06:17:48;;;;;;;40.88;18.50;;;;;;;12.45;41.75;102420.88;4429526;32;20471;-69
2022/01/24 06:20:14;;;;;;;45.78;18.90;;;;;;;12.31;41.92;102416.09;4428746;32;21181;-69
2022/01/24 06:22:40;;;;;;;46.10;18.12;;;;;;;12.32;41.71;102411.22;4429141;32;20049;-69
2022/01/24 06:25:08;;;;;;;53.30;18.33;;;;;;;12.33;41.92;102419.28;4427415;32;20095;-69
2022/01/24 06:27:34;;;;;;;49.65;21.48;;;;;;;12.49;41.65;102413.97;4427558;32;20092;-70
2022/01/24 06:30:00;;;;;;;47.00;20.35;;;;;;;12.37;41.83;102420.09;4428524;32;20081;-69
2022/01/24 06:32:25;;;;;;;52.05;21.67;;;;;;;12.50;41.53;102412.78;4429962;32;20025;-69
2022/01/24 06:34:51;;;;;;;52.45;20.67;;;;;;;12.49;41.44;102411.12;4425187;32;20049;-69
2022/01/24 06:37:17;;;;;;;55.42;21.58;;;;;;;12.52;41.04;102412.34;4418278;32;20022;-69
2022/01/24 06:39:42;;;;;;;48.90;20.48;;;;;;;12.50;41.47;102414.78;4419728;32;20401;-69
2022/01/24 06:42:13;;;;;;;55.90;21.23;;;;;;;12.43;41.57;102418.47;4415180;32;20073;-69
2022/01/24 06:44:39;;;;;;;51.15;20.98;;;;;;;12.39;41.67;102414.84;4415281;32;20556;-69
2022/01/24 06:47:06;;;;;;;54.53;22.00;;;;;;;12.45;41.52;102416.00;4417655;32;20089;-69
2022/01/24 06:49:34;;;;;;;56.78;24.35;;;;;;;12.56;41.10;102421.59;4418779;32;20136;-69
2022/01/24 06:51:59;;;;;;;56.30;24.00;;;;;;;12.43;41.31;102421.28;4420266;32;20081;-69
2022/01/24 06:54:25;;;;;;;65.20;25.37;;;;;;;12.33;41.88;102419.28;4416425;32;20507;-69
2022/01/24 06:56:51;;;;;;;70.85;25.98;;;;;;;12.40;41.91;102424.94;4420008;32;20077;-70
2022/01/24 06:59:17;;;;;;;59.28;24.80;;;;;;;12.02;42.61;102428.69;4417525;32;20056;-70
2022/01/24 07:01:42;;;;;;;62.62;25.12;;;;;;;12.05;42.72;102427.88;4416746;32;20069;-69
2022/01/24 07:04:08;;;;;;;65.07;24.67;;;;;;;12.37;41.80;102433.41;4415648;32;20029;-69
2022/01/24 07:06:34;;;;;;;70.12;27.58;;;;;;;12.07;42.25;102437.56;4417379;32;20057;-69
2022/01/24 07:08:59;;;;;;;67.40;27.05;;;;;;;12.22;42.39;102426.22;4417256;32;20068;-69
2022/01/24 07:11:25;;;;;;;76.32;27.87;;;;;;;12.07;42.46;102429.09;4416954;32;20419;-69
2022/01/24 07:13:53;;;;;;;70.37;27.67;;;;;;;12.29;42.13;102424.16;4416392;32;20065;-69
2022/01/24 07:16:18;;;;;;;77.15;28.02;;;;;;;12.20;42.17;102426.63;4416654;32;20191;-69
2022/01/24 07:18:59;;;;;;;73.78;28.52;;;;;;;12.08;42.52;102427.88;4415281;32;20442;-70
2022/01/24 07:21:25;;;;;;;77.45;28.70;;;;;;;12.06;42.50;102429.50;4417698;32;20077;-70
2022/01/24 07:23:51;;;;;;;86.53;31.98;;;;;;;12.06;42.42;102435.16;4416088;32;20132;-70
2022/01/24 07:26:16;;;;;;;80.70;30.12;;;;;;;12.23;42.25;102433.44;4416711;32;20069;-70
2022/01/24 07:28:44;;;;;;;74.90;28.77;;;;;;;12.16;42.83;102437.13;4416110;32;20070;-69
2022/01/24 07:31:11;;;;;;;83.28;31.40;;;;;;;11.70;43.18;102431.62;4413775;32;20064;-69
2022/01/24 07:33:37;;;;;;;82.22;31.08;;;;;;;12.16;42.99;102434.31;4413327;32;20077;-70
2022/01/24 07:36:03;;;;;;;86.43;31.02;;;;;;;12.08;42.94;102429.87;4414141;32;20079;-69
2022/01/24 07:38:29;;;;;;;84.30;31.37;;;;;;;12.08;42.80;102438.34;4418234;32;20123;-69
2022/01/24 07:40:56;;;;;;;84.87;31.83;;;;;;;12.15;42.83;102431.88;4412952;32;20567;-69
2022/01/24 07:43:22;;;;;;;90.80;32.97;;;;;;;11.81;43.12;102429.56;4414213;32;20617;-69
2022/01/24 07:45:49;;;;;;;96.03;33.38;;;;;;;11.81;43.62;102428.75;4406594;32;20306;-70
2022/01/24 07:48:17;;;;;;;93.93;33.45;;;;;;;11.74;43.45;102432.41;4411546;32;20068;-69
2022/01/24 07:50:47;;;;;;;91.53;33.58;;;;;;;11.80;43.79;102432.78;4413190;32;20082;-69
2022/01/24 07:53:15;;;;;;;98.20;34.28;;;;;;;11.94;42.93;102425.09;4418443;32;20118;-69
2022/01/24 07:55:41;;;;;;;89.43;31.70;;;;;;;11.98;43.28;102427.91;4404574;32;20381;-69
2022/01/24 07:58:08;;;;;;;87.55;33.75;;;;;;;12.05;43.24;102431.50;4410042;32;20846;-70
2022/01/24 08:00:34;;;;;;;97.78;34.60;;;;;;;11.67;44.10;102431.59;4411594;32;20084;-70
2022/01/24 08:03:00;;;;;;;99.53;34.65;;;;;;;11.90;43.69;102437.59;4416523;32;20069;-71
2022/01/24 08:05:26;;;;;;;96.72;34.17;;;;;;;11.85;43.75;102447.28;4409676;32;20539;-70
2022/01/24 08:07:53;;;;;;;93.28;33.55;;;;;;;12.08;43.44;102441.16;4404634;32;20045;-70
2022/01/24 08:10:19;;;;;;;94.10;35.33;;;;;;;12.09;43.34;102440.75;4409303;32;20079;-70
2022/01/24 08:12:45;;;;;;;105.18;36.83;;;;;;;12.12;43.19;102449.63;4414173;32;20260;-70
2022/01/24 08:15:14;;;;;;;105.57;35.28;;;;;;;11.93;43.52;102443.22;4411312;32;20041;-70
2022/01/24 08:17:42;;;;;;;96.35;35.30;;;;;;;12.25;43.07;102445.97;4408244;32;20052;-70
2022/01/24 08:20:09;;;;;;;102.75;35.25;;;;;;;11.82;43.85;102455.75;4406248;32;20174;-70
2022/01/24 08:22:35;;;;;;;95.10;34.70;;;;;;;12.13;43.46;102442.78;4409368;32;20931;-70
2022/01/24 08:25:04;;;;;;;89.32;32.80;;;;;;;11.95;43.50;102438.00;4413375;32;20034;-70
2022/01/24 08:27:31;;;;;;;100.30;33.70;;;;;;;11.76;43.81;102443.28;4413797;32;20723;-70
2022/01/24 08:29:57;;;;;;;99.05;34.42;;;;;;;11.63;43.99;102444.91;4411356;32;20038;-70
2022/01/24 08:32:23;;;;;;;92.47;33.22;;;;;;;11.88;43.61;102448.50;4411479;32;20088;-70
2022/01/24 08:34:49;;;;;;;94.68;34.72;;;;;;;11.93;43.43;102439.59;4407674;32;20392;-70
2022/01/24 08:37:15;;;;;;;102.28;35.05;;;;;;;12.06;43.27;102447.22;4413897;32;21375;-70
2022/01/24 08:39:43;;;;;;;98.30;34.10;;;;;;;12.00;43.87;102448.06;4408632;32;20034;-70
2022/01/24 08:42:15;;;;;;;107.47;36.25;;;;;;;11.74;43.95;102443.69;4414020;32;20052;-71
2022/01/24 08:47:35;;;;;;;96.05;33.50;;;;;;;12.16;43.22;102450.41;3962603;32;15152240;-71
2022/01/24 08:50:04;;;;;;;106.95;35.22;;;;;;;12.22;43.50;102449.59;4413016;32;20436;-71
2022/01/24 08:52:30;;;;;;;107.63;34.92;;;;;;;12.29;43.30;102454.41;4412553;32;20531;-72
2022/01/24 08:54:56;;;;;;;93.22;34.20;;;;;;;11.95;43.76;102452.09;4412626;32;20077;-71
2022/01/24 08:57:25;;;;;;;104.80;35.22;;;;;;;11.79;44.01;102448.91;4411053;32;20180;-71
2022/01/24 08:59:53;;;;;;;103.78;34.70;;;;;;;12.18;43.42;102445.97;4409636;32;20077;-71
2022/01/24 09:02:20;;;;;;;93.37;33.90;;;;;;;12.47;42.88;102443.84;4414361;32;20045;-72
2022/01/24 09:04:47;;;;;;;101.07;33.30;;;;;;;12.55;42.81;102451.88;4413886;32;20093;-69
2022/01/24 09:07:13;;;;;;;100.57;35.60;;;;;;;12.53;42.72;102462.78;4414130;32;20506;-69
2022/01/24 09:09:39;;;;;;;103.30;34.85;;;;;;;12.58;42.50;102462.34;4411057;32;20077;-69
2022/01/24 09:12:11;;;;;;;85.75;33.00;;;;;;;12.54;42.58;102467.22;4411871;32;20668;-68
2022/01/24 09:14:40;;;;;;;98.68;34.65;;;;;;;12.84;42.13;102467.47;4412331;32;20529;-69
2022/01/24 09:17:06;;;;;;;114.60;36.05;;;;;;;12.67;42.54;102467.56;4411421;32;20804;-70
2022/01/24 09:19:31;;;;;;;98.45;34.65;;;;;;;12.41;42.73;102466.06;4407842;32;20079;-70
2022/01/24 09:21:57;;;;;;;103.28;34.83;;;;;;;12.57;42.18;102460.75;4412639;32;20049;-68
2022/01/24 09:24:23;;;;;;;98.05;33.20;;;;;;;12.70;42.01;102472.38;4412361;32;20099;-69
2022/01/24 09:26:49;;;;;;;103.45;34.47;;;;;;;12.42;42.82;102473.31;4409281;32;20050;-69
2022/01/24 09:29:14;;;;;;;94.22;32.30;;;;;;;12.70;42.30;102476.00;4411210;32;20072;-69
2022/01/24 09:31:40;;;;;;;96.12;34.65;;;;;;;12.63;41.90;102481.69;4411200;32;20520;-69
2022/01/24 09:34:06;;;;;;;92.90;33.97;;;;;;;13.07;41.59;102484.69;4413381;32;20104;-69
2022/01/24 09:36:32;;;;;;;85.80;31.02;;;;;;;12.81;41.93;102481.59;4410357;32;20677;-70
2022/01/24 09:38:58;;;;;;;86.97;31.33;;;;;;;13.03;41.42;102481.09;4411806;32;20083;-69
2022/01/24 09:41:24;;;;;;;88.62;31.85;;;;;;;13.20;41.19;102488.63;4408552;32;20529;-70
2022/01/24 09:43:49;;;;;;;87.97;32.40;;;;;;;13.09;41.47;102484.28;4412648;32;20349;-69
2022/01/24 09:46:15;;;;;;;85.55;30.75;;;;;;;13.02;41.42;102485.16;4410746;32;20431;-69
2022/01/24 09:48:42;;;;;;;86.50;29.90;;;;;;;13.08;41.45;102485.50;4408096;32;20138;-68
2022/01/24 09:51:09;;;;;;;78.90;30.40;;;;;;;13.39;41.17;102482.47;4411253;32;21004;-69
2022/01/24 09:53:37;;;;;;;75.95;28.10;;;;;;;13.33;40.97;102484.13;4411478;32;20490;-70
2022/01/24 09:56:04;;;;;;;80.57;29.50;;;;;;;13.44;40.75;102484.81;4411288;32;20135;-69
2022/01/24 09:58:33;;;;;;;76.03;27.83;;;;;;;13.51;40.70;102481.16;4404855;32;20542;-69
2022/01/24 10:01:00;;;;;;;76.00;28.92;;;;;;;13.34;40.99;102488.53;4399952;32;20145;-68
2022/01/24 10:03:27;;;;;;;87.50;30.80;;;;;;;13.27;41.10;102497.09;4402211;32;20103;-69
2022/01/24 10:05:55;;;;;;;81.72;30.73;;;;;;;13.29;40.93;102486.16;4402508;32;20128;-70
2022/01/24 10:08:24;;;;;;;76.18;30.27;;;;;;;13.62;40.76;102481.84;4399203;32;20041;-71
2022/01/24 10:19:17;;;;;;;78.65;29.70;;;;;;;14.31;39.52;102485.22;3959437;32;15022932;-71
2022/01/24 10:21:49;;;;;;;75.57;29.55;;;;;;;14.31;39.52;102485.22;4425007;32;20147;-69
2022/01/24 10:40:54;;;;;;;80.12;29.87;;;;;;;14.63;38.96;102490.50;3992377;31;15019586;-71
2022/01/24 10:43:24;;;;;;;75.32;28.02;;;;;;;14.63;38.96;102490.50;4428024;32;20517;-71
2022/01/24 10:45:53;;;;;;;78.85;30.05;;;;;;;14.22;39.40;102493.38;4435447;32;20164;-70
2022/01/24 10:48:22;;;;;;;75.47;28.23;;;;;;;14.17;39.20;102491.00;4440375;32;20073;-71
2022/01/24 10:51:01;;;;;;;83.55;31.70;;;;;;;14.18;39.48;102491.81;4436784;32;20823;-70
2022/01/24 10:56:38;;;;;;;74.95;27.40;;;;;;;14.23;39.58;102480.84;3963401;32;15028274;-71
2022/01/24 10:59:17;;;;;;;77.55;27.45;;;;;;;14.06;39.76;102482.62;4413722;32;20094;-71
2022/01/24 11:01:47;;;;;;;83.12;28.85;;;;;;;13.99;40.01;102467.72;4412626;32;20115;-71
2022/01/24 11:04:17;;;;;;;77.85;28.98;;;;;;;13.98;40.02;102469.78;4415629;32;20478;-72
2022/01/24 11:06:45;;;;;;;74.37;28.45;;;;;;;14.02;40.05;102478.22;4413357;32;20423;-71
2022/01/24 11:09:19;;;;;;;69.40;27.67;;;;;;;13.84;39.89;102474.78;4417727;32;20107;-71
2022/01/24 11:11:46;;;;;;;79.80;29.85;;;;;;;14.03;39.69;102474.19;4413490;32;20101;-71
2022/01/24 11:14:16;;;;;;;72.55;27.70;;;;;;;13.94;40.18;102477.47;4416597;32;20049;-71
2022/01/24 11:16:43;;;;;;;82.55;27.23;;;;;;;14.07;39.96;102474.94;4412903;32;20120;-71
2022/01/24 11:19:24;;;;;;;73.45;27.70;;;;;;;14.03;39.87;102485.50;4410515;32;20068;-72
2022/01/24 11:21:52;;;;;;;78.90;28.05;;;;;;;14.34;39.82;102484.37;4416153;32;20509;-70
2022/01/24 11:24:22;;;;;;;78.75;27.95;;;;;;;14.31;39.63;102484.41;4413564;32;20492;-71
2022/01/24 11:26:48;;;;;;;75.68;27.45;;;;;;;14.28;39.60;102480.41;4413294;32;20100;-70
2022/01/24 11:29:17;;;;;;;73.28;28.92;;;;;;;14.38;39.18;102472.97;4414959;32;20627;-70
2022/01/24 11:31:50;;;;;;;73.95;27.83;;;;;;;14.64;39.18;102477.94;4416536;32;20434;-71
2022/01/24 11:34:30;;;;;;;79.80;28.45;;;;;;;14.68;39.06;102473.81;4416403;32;20088;-71
2022/01/24 11:36:56;;;;;;;77.70;27.52;;;;;;;14.63;39.37;102473.50;4413733;32;20037;-71
2022/01/24 11:39:23;;;;;;;74.70;26.10;;;;;;;14.62;39.22;102467.00;4416133;32;20477;-72
2022/01/24 11:41:48;;;;;;;68.50;25.62;;;;;;;14.14;39.81;102465.56;4414655;32;20138;-71
2022/01/24 11:44:17;;;;;;;74.10;25.15;;;;;;;14.26;39.98;102474.34;4413900;32;20084;-71
2022/01/24 11:52:05;;;;;;;72.00;26.92;;;;;;;14.71;39.37;102470.13;3972350;32;15031054;-70
2022/01/24 11:57:16;;;;;;;66.25;23.98;;;;;;;14.43;39.70;102461.19;3973343;32;15026122;-70
2022/01/24 11:59:43;;;;;;;69.10;23.00;;;;;;;14.75;39.11;102467.22;4421733;32;20693;-70
2022/01/24 12:02:18;;;;;;;61.75;23.38;;;;;;;14.55;39.27;102472.78;4422978;32;20146;-70
2022/01/24 12:04:52;;;;;;;;;;;;;;;15.05;38.75;102468.03;4422520;32;20090;-70
2022/01/24 12:07:23;;;;;;;69.47;24.95;;;;;;;15.10;38.80;102463.91;4421125;32;21021;-70
2022/01/24 12:09:52;;;;;;;71.60;25.20;;;;;;;15.11;39.06;102466.31;4424190;32;20380;-70
2022/01/24 12:12:38;;;;;;;61.25;24.08;;;;;;;15.22;38.31;102466.94;4421279;32;20108;-70
2022/01/24 12:15:07;;;;;;;57.15;22.30;;;;;;;15.40;38.04;102473.16;4421536;32;20370;-70
2022/01/24 12:17:52;;;;;;;54.97;21.75;;;;;;;15.48;38.15;102463.31;4422173;32;20081;-71
2022/01/24 12:36:51;;;;;;;60.63;25.87;;;;;;;16.23;36.87;102455.00;3976767;31;15016995;-72
2022/01/24 12:39:24;;;;;;;60.30;22.15;;;;;;;15.56;38.11;102450.59;4440998;32;20056;-71
2022/01/24 12:41:57;;;;;;;55.80;20.37;;;;;;;15.68;37.94;102443.50;4440521;32;20081;-70
2022/01/24 12:47:26;;;;;;;54.25;20.40;;;;;;;16.60;37.03;102439.66;3980485;31;15016246;-71
2022/01/24 12:49:54;;;;;;;54.30;19.02;;;;;;;16.60;37.03;102439.66;4439533;32;20092;-71
2022/01/24 12:52:25;;;;;;;48.97;19.58;;;;;;;16.27;37.32;102438.69;4439456;32;20490;-71
2022/01/24 12:54:54;;;;;;;53.90;19.77;;;;;;;16.24;37.09;102448.09;4439001;32;20076;-71
2022/01/24 12:57:29;;;;;;;48.85;18.05;;;;;;;16.49;37.07;102439.06;4445203;32;20081;-71
2022/01/24 13:02:33;;;;;;;57.13;21.58;;;;;;;16.42;36.83;102425.00;3945173;32;15721557;-70
2022/01/24 13:07:38;;;;;;;53.13;17.95;;;;;;;17.04;36.00;102419.13;3973808;32;15023042;-71
2022/01/24 13:12:44;;;;;;;49.75;18.70;;;;;;;16.81;36.57;102425.75;3976553;31;15017822;-70
2022/01/24 13:15:23;;;;;;;48.05;19.33;;;;;;;16.81;36.57;102425.75;4427950;32;20041;-70
2022/01/24 13:23:26;;;;;;;;;;;;;;;15.88;37.33;102402.56;4428531;32;20049;-70
2022/01/24 13:25:52;;;;;;;47.22;17.77;;;;;;;16.40;36.81;102410.41;4425363;32;20004;-72
2022/01/24 13:28:19;;;;;;;58.08;18.52;;;;;;;15.69;38.19;102403.34;4429654;32;20705;-73
2022/01/24 13:30:49;;;;;;;44.95;17.85;;;;;;;15.61;38.42;102399.00;4421474;32;20616;-73
2022/01/24 13:33:20;;;;;;;52.20;18.77;;;;;;;15.81;38.15;102399.84;4427685;32;20088;-72
2022/01/24 13:35:52;;;;;;;52.40;17.52;;;;;;;15.78;38.23;102405.59;4426388;32;20097;-72
2022/01/24 13:38:20;;;;;;;61.80;16.55;;;;;;;15.64;38.39;102398.16;4426275;32;20109;-71
2022/01/24 13:40:54;;;;;;;54.30;17.75;;;;;;;15.68;38.40;102403.78;4430443;32;20101;-72
2022/01/24 13:49:08;;;;;;;44.05;16.27;;;;;;;16.41;37.65;102403.50;3965011;32;15023929;-72
2022/01/24 13:57:04;;;;;;;53.47;19.35;;;;;;;16.66;37.08;102401.72;3966780;32;15027293;-73
2022/01/24 13:59:33;;;;;;;46.97;17.30;;;;;;;16.66;37.08;102401.72;4412682;32;20099;-72
2022/01/24 14:02:05;;;;;;;60.08;19.75;;;;;;;16.11;37.79;102393.19;4412957;32;20396;-71
2022/01/24 14:04:42;;;;;;;49.60;16.00;;;;;;;16.24;37.59;102396.16;4413433;32;20091;-70